Time;durP1;ratioP1;P1;durP2;ratioP2;P2;SDS_P1;SDS_P2;PMS_P1;PMS_P2;Temp;Humidity;BMP_temperature;BMP_pressure;BME280_temperature;BME280_humidity;BME280_pressure;Samples;Min_cycle;Max_cycle;Signal;HPM_P1;HPM_P2
2021/08/27 00:00:04;;;;;;;3.90;3.30;;;;;;;10.31;79.11;98748.30;472596;1194;141191;-61
2021/08/27 00:10:09;;;;;;;4.80;4.00;;;;;;;10.15;79.13;98759.27;469391;1194;140936;-62
2021/08/27 00:20:14;;;;;;;4.10;2.70;;;;;;;10.01;79.25;98764.31;471660;1194;142320;-62
2021/08/27 00:30:17;;;;;;;3.90;3.30;;;;;;;9.94;79.63;98772.52;462997;1194;141163;-60
2021/08/27 00:40:21;;;;;;;3.80;3.30;;;;;;;9.99;79.83;98789.00;470928;1190;145151;-61
2021/08/27 00:50:25;;;;;;;6.60;4.10;;;;;;;10.13;79.87;98806.95;458646;1193;141223;-61
2021/08/27 01:00:29;;;;;;;6.70;4.70;;;;;;;10.30;79.79;98808.48;472583;1194;143781;-61
2021/08/27 01:10:36;;;;;;;5.60;5.00;;;;;;;10.46;79.91;98799.63;472873;1194;141320;-61
2021/08/27 01:21:01;;;;;;;6.80;5.10;;;;;;;10.58;79.80;98792.79;473049;1183;141772;-61
2021/08/27 01:31:15;;;;;;;6.70;4.90;;;;;;;10.66;79.85;98790.77;472922;1194;141462;-60
2021/08/27 01:41:19;;;;;;;8.10;5.80;;;;;;;10.72;79.89;98794.18;471847;1194;141589;-61
2021/08/27 01:51:23;;;;;;;8.30;6.90;;;;;;;10.78;79.85;98792.14;472690;1194;140611;-61
2021/08/27 02:01:28;;;;;;;7.00;6.40;;;;;;;10.84;79.89;98793.81;472690;1194;145832;-61
2021/08/27 02:11:34;;;;;;;6.90;6.40;;;;;;;10.85;79.81;98791.08;455580;1194;141848;-62
2021/08/27 02:21:43;;;;;;;8.60;7.70;;;;;;;10.79;79.90;98789.95;462165;1194;140667;-61
2021/08/27 02:31:49;;;;;;;8.00;7.20;;;;;;;10.73;80.06;98792.84;458204;1195;143573;-60
2021/08/27 02:41:54;;;;;;;9.50;6.80;;;;;;;10.64;80.22;98787.79;456373;1198;143645;-61
2021/08/27 02:52:05;;;;;;;8.80;7.40;;;;;;;10.66;80.30;98787.96;467528;1194;141829;-62
2021/08/27 03:02:15;;;;;;;10.70;8.10;;;;;;;10.70;80.20;98781.42;470493;1194;142378;-61
2021/08/27 03:12:26;;;;;;;9.60;7.20;;;;;;;10.63;80.28;98784.70;472794;1194;143731;-61
2021/08/27 03:22:33;;;;;;;15.70;7.80;;;;;;;10.66;80.55;98800.40;472915;1194;141497;-62
2021/08/27 03:32:36;;;;;;;19.90;8.90;;;;;;;10.77;80.42;98806.90;472981;1194;141560;-62
2021/08/27 03:42:39;;;;;;;25.20;13.80;;;;;;;10.91;80.77;98811.27;472779;1194;143623;-62
2021/08/27 03:52:45;;;;;;;22.40;16.40;;;;;;;11.04;80.88;98809.06;472155;1194;142294;-61
2021/08/27 04:02:50;;;;;;;23.50;17.10;;;;;;;11.13;81.06;98811.69;472895;1194;142294;-62
2021/08/27 04:12:53;;;;;;;29.90;16.40;;;;;;;11.23;81.12;98823.89;472799;1194;141939;-62
2021/08/27 04:22:56;;;;;;;25.20;16.20;;;;;;;11.23;81.18;98831.89;471968;1194;142662;-61
2021/08/27 04:33:00;;;;;;;21.50;14.90;;;;;;;11.33;81.11;98844.77;472815;1194;141188;-62
2021/08/27 04:43:03;;;;;;;18.70;13.70;;;;;;;11.41;80.85;98858.89;472940;1194;140898;-61
2021/08/27 04:53:07;;;;;;;21.60;14.30;;;;;;;11.52;80.78;98876.77;471793;1194;143578;-61
2021/08/27 05:03:10;;;;;;;23.40;14.60;;;;;;;11.68;80.69;98885.88;472761;1193;141985;-61
2021/08/27 05:13:13;;;;;;;15.40;10.70;;;;;;;11.95;80.37;98894.80;472787;1194;141508;-61
2021/08/27 05:23:16;;;;;;;14.50;10.70;;;;;;;12.07;79.88;98902.95;472290;1190;141162;-61
2021/08/27 05:33:20;;;;;;;12.90;9.60;;;;;;;12.22;79.51;98902.27;472909;1194;142444;-61
2021/08/27 05:43:25;;;;;;;12.30;10.10;;;;;;;12.47;79.37;98902.39;472833;1194;200886;-62
2021/08/27 05:53:28;;;;;;;14.00;10.40;;;;;;;12.68;78.94;98902.23;472064;1194;141323;-61
2021/08/27 06:03:31;;;;;;;12.60;9.80;;;;;;;12.95;78.65;98910.35;472303;1195;142471;-61
2021/08/27 06:13:34;;;;;;;13.10;9.70;;;;;;;13.13;78.06;98911.82;464000;1194;142500;-61
2021/08/27 06:23:37;;;;;;;18.60;12.10;;;;;;;13.12;77.87;98918.58;458145;1195;141097;-60
2021/08/27 06:33:40;;;;;;;18.60;13.10;;;;;;;13.16;77.89;98924.19;464594;1194;141458;-61
2021/08/27 06:43:45;;;;;;;24.80;15.20;;;;;;;13.20;77.70;98934.41;471855;1194;141612;-60
2021/08/27 06:53:53;;;;;;;18.30;14.10;;;;;;;13.47;77.54;98934.92;472909;1194;143403;-62
2021/08/27 07:03:56;;;;;;;18.60;14.90;;;;;;;13.89;77.00;98936.77;472599;1194;141061;-61
2021/08/27 07:14:02;;;;;;;13.60;12.20;;;;;;;14.40;76.49;98941.74;471987;1194;141637;-61
2021/08/27 07:24:06;;;;;;;12.20;10.90;;;;;;;15.03;75.39;98951.05;465148;1195;141604;-60
2021/08/27 07:34:09;;;;;;;14.40;11.50;;;;;;;15.62;74.38;98959.14;472852;1193;141932;-61
2021/08/27 07:44:12;;;;;;;14.60;13.00;;;;;;;16.11;73.09;98959.30;463552;1195;140906;-61
2021/08/27 07:54:16;;;;;;;18.90;12.30;;;;;;;16.29;72.00;98966.90;464130;1191;141450;-60
2021/08/27 08:04:19;;;;;;;12.30;11.10;;;;;;;17.17;71.50;98966.11;472864;1194;142750;-61
2021/08/27 08:14:22;;;;;;;12.80;10.50;;;;;;;18.64;68.97;98961.98;472054;1194;141734;-61
2021/08/27 08:24:25;;;;;;;10.20;8.80;;;;;;;21.17;65.65;98968.34;472536;1194;141193;-61
2021/08/27 08:34:29;;;;;;;12.80;9.40;;;;;;;21.78;62.10;98976.55;472789;1193;142292;-61
2021/08/27 08:44:33;;;;;;;11.20;8.60;;;;;;;22.35;60.88;98964.36;472099;1194;140318;-68
2021/08/27 08:54:37;;;;;;;11.70;5.80;;;;;;;23.42;58.40;98965.27;472935;1194;141909;-62
2021/08/27 09:04:40;;;;;;;6.40;5.80;;;;;;;24.38;56.30;98969.15;472400;1183;141637;-61
2021/08/27 09:14:54;;;;;;;9.60;5.30;;;;;;;24.86;53.57;98967.79;472915;1194;140818;-63
2021/08/27 09:25:08;;;;;;;3.80;3.30;;;;;;;24.75;52.30;98964.36;472777;1194;140848;-70
2021/08/27 09:35:16;;;;;;;4.20;2.80;;;;;;;23.74;51.84;98964.79;472168;1194;142285;-68
2021/08/27 09:45:21;;;;;;;3.60;2.90;;;;;;;22.99;52.11;98972.12;472872;1194;139754;-63
2021/08/27 09:55:27;;;;;;;4.60;2.60;;;;;;;22.62;52.19;98980.99;472403;1195;140408;-61
2021/08/27 10:05:38;;;;;;;7.10;3.90;;;;;;;21.86;52.41;98991.34;472089;1195;140514;-61
2021/08/27 10:15:42;;;;;;;4.40;4.00;;;;;;;21.33;53.40;99003.45;472863;1194;140545;-63
2021/08/27 10:25:46;;;;;;;5.80;3.80;;;;;;;21.10;53.91;99002.81;471943;1194;141137;-60
2021/08/27 10:35:52;;;;;;;7.50;4.40;;;;;;;20.59;54.05;99007.08;472914;1194;140648;-61
2021/08/27 10:45:55;;;;;;;10.00;4.50;;;;;;;20.19;54.72;99006.23;472510;1194;140497;-65
2021/08/27 10:56:01;;;;;;;6.70;3.70;;;;;;;19.98;55.11;99005.90;471633;1194;141154;-70
2021/08/27 11:06:15;;;;;;;3.70;3.40;;;;;;;20.22;55.33;99006.48;472840;1194;140572;-68
2021/08/27 11:16:25;;;;;;;3.00;2.80;;;;;;;20.20;56.00;99002.19;472702;1194;140151;-65
2021/08/27 11:26:40;;;;;;;4.00;1.30;;;;;;;20.42;55.53;99004.38;471584;1194;141295;-65
2021/08/27 11:36:50;;;;;;;6.00;2.50;;;;;;;20.63;53.41;99001.94;469458;1194;140985;-67
2021/08/27 11:46:54;;;;;;;1.80;1.20;;;;;;;21.06;52.00;98994.54;465944;1194;144567;-63
2021/08/27 11:56:57;;;;;;;0.80;0.80;;;;;;;21.18;51.43;98993.79;472395;1194;140707;-66
2021/08/27 12:07:09;;;;;;;1.80;1.60;;;;;;;21.14;50.66;98999.51;472710;1191;140117;-68
2021/08/27 12:17:18;;;;;;;1.00;0.60;;;;;;;21.31;50.17;98997.80;462252;1194;140792;-66
2021/08/27 12:27:24;;;;;;;4.70;1.40;;;;;;;21.31;48.40;98996.08;472704;1194;143117;-65
2021/08/27 12:37:28;;;;;;;4.40;1.20;;;;;;;21.38;48.32;98997.68;472473;1194;140124;-68
2021/08/27 12:47:38;;;;;;;1.10;1.00;;;;;;;21.48;47.90;98992.98;472029;1193;143751;-67
2021/08/27 12:57:47;;;;;;;2.00;1.30;;;;;;;21.65;48.45;98986.88;470223;1194;140317;-64
2021/08/27 13:08:07;;;;;;;1.40;1.20;;;;;;;21.90;48.19;98988.20;471971;1194;141053;-64
2021/08/27 13:18:11;;;;;;;2.70;1.10;;;;;;;21.61;48.18;98987.55;472310;1194;141328;-63
2021/08/27 13:28:14;;;;;;;1.70;0.90;;;;;;;21.66;47.87;98987.81;472917;1190;144249;-62
2021/08/27 13:38:17;;;;;;;2.10;1.00;;;;;;;21.46;48.36;98996.11;471982;1194;140485;-65
2021/08/27 13:48:20;;;;;;;1.80;1.70;;;;;;;21.00;48.79;99002.38;472618;1193;140825;-67
2021/08/27 13:58:24;;;;;;;1.80;1.70;;;;;;;19.92;50.68;99004.47;472979;1182;141398;-61
2021/08/27 14:08:28;;;;;;;4.90;1.60;;;;;;;19.50;51.96;98995.23;471644;1194;140255;-70
2021/08/27 14:18:30;;;;;;;1.40;1.20;;;;;;;19.72;51.78;98990.17;472508;1194;140781;-60
2021/08/27 14:28:34;;;;;;;3.30;1.20;;;;;;;19.74;51.26;98990.09;472639;1194;140994;-61
2021/08/27 14:38:38;;;;;;;3.30;1.20;;;;;;;19.71;51.00;98985.47;464311;1194;140953;-57
2021/08/27 14:48:41;;;;;;;1.10;0.80;;;;;;;19.56;50.97;98981.66;469574;1194;142378;-61
2021/08/27 14:58:44;;;;;;;3.80;1.60;;;;;;;19.28;51.30;98981.38;471831;1194;141144;-61
2021/08/27 15:08:47;;;;;;;1.90;1.70;;;;;;;18.77;52.51;98999.97;472507;1194;141518;-65
2021/08/27 15:18:51;;;;;;;2.60;1.80;;;;;;;18.26;53.77;99007.45;464314;1194;140879;-60
2021/08/27 15:28:54;;;;;;;3.40;2.50;;;;;;;17.75;54.69;99012.63;460809;1194;140566;-61
2021/08/27 15:38:57;;;;;;;5.20;3.30;;;;;;;17.40;56.95;99019.29;472663;1194;142296;-60
2021/08/27 15:49:01;;;;;;;3.20;2.00;;;;;;;17.15;58.04;99026.20;463644;1194;140924;-60
2021/08/27 15:59:05;;;;;;;2.90;1.60;;;;;;;16.94;58.47;99032.63;471353;1194;141530;-61
2021/08/27 16:09:08;;;;;;;2.20;1.60;;;;;;;16.74;58.28;99041.17;457090;1194;145573;-59
2021/08/27 16:19:11;;;;;;;6.00;2.20;;;;;;;16.54;58.45;99051.16;472661;1194;141900;-61
2021/08/27 16:29:15;;;;;;;5.70;2.80;;;;;;;16.50;59.97;99056.04;472280;1190;141284;-61
2021/08/27 16:39:19;;;;;;;5.30;2.70;;;;;;;16.45;60.99;99060.73;468174;1194;141130;-63
2021/08/27 16:49:22;;;;;;;4.00;2.70;;;;;;;16.28;62.09;99059.17;465764;1194;141061;-60
2021/08/27 16:59:25;;;;;;;3.80;2.80;;;;;;;16.02;62.83;99065.70;472363;1182;141665;-60
2021/08/27 17:09:28;;;;;;;3.80;3.10;;;;;;;15.67;63.92;99075.13;455448;1194;10138911;-57
2021/08/27 17:19:31;;;;;;;5.40;2.80;;;;;;;15.22;64.66;99077.83;464073;1194;141353;-60
2021/08/27 17:29:34;;;;;;;7.50;4.60;;;;;;;14.78;65.31;99083.84;457947;1194;142198;-58
2021/08/27 17:39:38;;;;;;;5.20;4.60;;;;;;;14.34;66.11;99089.83;459607;1194;140710;-60
2021/08/27 17:49:42;;;;;;;6.90;4.30;;;;;;;13.90;67.11;99099.27;466279;1194;144578;-61
2021/08/27 17:59:45;;;;;;;11.30;6.60;;;;;;;13.51;68.18;99109.38;472447;1194;144743;-60
2021/08/27 18:09:48;;;;;;;15.30;8.50;;;;;;;13.23;69.00;99115.84;467148;1194;141804;-60
2021/08/27 18:19:52;;;;;;;7.70;6.30;;;;;;;12.96;69.93;99121.91;471802;1194;141912;-61
2021/08/27 18:29:56;;;;;;;21.20;7.20;;;;;;;12.70;70.47;99130.71;464651;1194;141567;-58
2021/08/27 18:39:59;;;;;;;9.70;5.80;;;;;;;12.41;71.06;99138.92;465173;1194;141539;-61
2021/08/27 18:50:02;;;;;;;14.00;8.50;;;;;;;12.19;71.72;99144.50;469615;1194;141929;-60
2021/08/27 19:00:08;;;;;;;8.10;7.10;;;;;;;12.02;72.26;99149.26;470617;1194;141024;-59
2021/08/27 19:10:12;;;;;;;13.10;8.40;;;;;;;11.84;72.80;99150.80;465313;1194;141208;-60
2021/08/27 19:20:15;;;;;;;17.40;10.70;;;;;;;11.67;73.13;99149.41;455635;1194;140710;-60
2021/08/27 19:30:19;;;;;;;14.40;8.90;;;;;;;11.52;73.66;99153.58;467339;1194;141765;-59
2021/08/27 19:40:22;;;;;;;23.60;15.40;;;;;;;11.48;74.28;99162.76;456471;1195;140587;-60
2021/08/27 19:50:27;;;;;;;24.40;16.20;;;;;;;11.43;74.48;99168.58;465326;1194;141994;-60
2021/08/27 20:00:31;;;;;;;25.10;17.40;;;;;;;11.35;74.96;99169.51;465752;1194;141373;-60
2021/08/27 20:10:35;;;;;;;22.70;14.70;;;;;;;11.23;75.20;99171.26;465835;1194;141959;-60
2021/08/27 20:20:38;;;;;;;12.60;8.80;;;;;;;11.11;75.67;99172.34;472336;1194;142351;-60
2021/08/27 20:30:42;;;;;;;14.60;10.20;;;;;;;10.98;76.03;99177.45;472850;1194;141360;-60
2021/08/27 20:40:45;;;;;;;20.10;12.90;;;;;;;10.85;76.25;99181.90;468787;1194;143297;-60
2021/08/27 20:50:48;;;;;;;24.30;12.60;;;;;;;10.74;76.45;99181.45;458450;1194;140940;-60
2021/08/27 21:00:51;;;;;;;17.60;13.60;;;;;;;10.60;76.61;99190.43;456573;1195;141472;-60
2021/08/27 21:10:56;;;;;;;19.70;13.90;;;;;;;10.48;76.92;99191.10;455708;1195;141219;-61
2021/08/27 21:20:59;;;;;;;18.90;14.50;;;;;;;10.34;76.97;99192.05;461763;1195;142122;-60
2021/08/27 21:31:02;;;;;;;18.20;13.80;;;;;;;10.16;76.79;99194.16;456609;1203;141194;-59
2021/08/27 21:41:05;;;;;;;18.20;14.70;;;;;;;10.04;77.11;99192.14;470824;1194;143209;-60
2021/08/27 21:51:08;;;;;;;19.90;15.90;;;;;;;9.95;77.36;99193.45;472762;1195;141884;-61
2021/08/27 22:01:12;;;;;;;20.90;13.20;;;;;;;9.87;77.23;99191.35;472574;1194;142726;-61
2021/08/27 22:11:16;;;;;;;16.70;13.80;;;;;;;9.77;77.59;99193.41;472312;1190;143762;-60
2021/08/27 22:21:20;;;;;;;23.90;14.40;;;;;;;9.72;77.72;99195.02;472577;1195;141396;-61
2021/08/27 22:31:23;;;;;;;20.20;14.10;;;;;;;9.61;77.46;99200.09;472457;1195;141696;-61
2021/08/27 22:41:27;;;;;;;19.30;13.70;;;;;;;9.52;77.67;99195.57;471701;1194;141722;-62
2021/08/27 22:51:30;;;;;;;19.20;14.50;;;;;;;9.45;78.15;99194.65;472699;1191;141755;-62
2021/08/27 23:01:33;;;;;;;16.30;14.60;;;;;;;9.38;78.27;99197.54;472560;1195;141265;-62
2021/08/27 23:11:37;;;;;;;18.70;13.90;;;;;;;9.27;78.07;99203.35;472864;1194;141816;-62
2021/08/27 23:21:41;;;;;;;20.90;13.70;;;;;;;9.18;77.98;99200.59;472788;1194;143492;-61
2021/08/27 23:31:44;;;;;;;15.20;12.10;;;;;;;9.07;77.81;99195.52;471696;1195;141683;-61
2021/08/27 23:41:47;;;;;;;18.00;14.20;;;;;;;8.95;78.64;99198.38;470847;1194;141222;-60
2021/08/27 23:51:50;;;;;;;18.30;13.80;;;;;;;8.84;78.99;99194.88;472915;1182;140790;-62
